sensor_id;sensor_type;location;lat;lon;timestamp;pressure;altitude;pressure_sealevel;temperature;humidity
42003;BME280;27693;50.506;30.832;2022-08-01T00:00:16;99394.09;;;20.30;62.35
42003;BME280;27693;50.506;30.832;2022-08-01T00:01:20;99395.34;;;20.36;61.98
42003;BME280;27693;50.506;30.832;2022-08-01T00:02:23;99386.86;;;20.42;61.67
42003;BME280;27693;50.506;30.832;2022-08-01T00:03:25;99396.16;;;20.46;61.56
42003;BME280;27693;50.506;30.832;2022-08-01T00:04:27;99395.88;;;20.49;61.75
42003;BME280;27693;50.506;30.832;2022-08-01T00:05:30;99397.82;;;20.47;61.51
42003;BME280;27693;50.506;30.832;2022-08-01T00:06:32;99397.25;;;20.53;61.66
42003;BME280;27693;50.506;30.832;2022-08-01T00:07:35;99392.97;;;20.52;61.42
42003;BME280;27693;50.506;30.832;2022-08-01T00:08:37;99393.39;;;20.48;61.47
42003;BME280;27693;50.506;30.832;2022-08-01T00:09:40;99390.87;;;20.46;61.87
42003;BME280;27693;50.506;30.832;2022-08-01T00:10:42;99395.88;;;20.49;61.55
42003;BME280;27693;50.506;30.832;2022-08-01T00:11:46;99389.32;;;20.53;61.94
42003;BME280;27693;50.506;30.832;2022-08-01T00:12:50;99400.59;;;20.55;61.53
42003;BME280;27693;50.506;30.832;2022-08-01T00:13:52;99394.20;;;20.48;61.31
42003;BME280;27693;50.506;30.832;2022-08-01T00:14:56;99385.47;;;20.48;61.08
42003;BME280;27693;50.506;30.832;2022-08-01T00:15:58;99385.47;;;20.48;61.08
42003;BME280;27693;50.506;30.832;2022-08-01T00:17:01;99391.56;;;20.48;61.59
42003;BME280;27693;50.506;30.832;2022-08-01T00:18:05;99388.92;;;20.48;61.84
42003;BME280;27693;50.506;30.832;2022-08-01T00:19:07;99386.86;;;20.42;61.56
42003;BME280;27693;50.506;30.832;2022-08-01T00:20:13;99393.95;;;20.41;61.55
42003;BME280;27693;50.506;30.832;2022-08-01T00:21:17;99389.52;;;20.32;61.73
42003;BME280;27693;50.506;30.832;2022-08-01T00:22:19;99384.26;;;20.13;62.37
42003;BME280;27693;50.506;30.832;2022-08-01T00:23:21;99393.70;;;20.15;62.75
42003;BME280;27693;50.506;30.832;2022-08-01T00:24:23;99395.38;;;20.16;62.57
42003;BME280;27693;50.506;30.832;2022-08-01T00:25:26;99386.75;;;20.14;62.38
42003;BME280;27693;50.506;30.832;2022-08-01T00:26:31;99394.52;;;20.16;62.89
42003;BME280;27693;50.506;30.832;2022-08-01T00:27:33;99393.70;;;20.15;62.46
42003;BME280;27693;50.506;30.832;2022-08-01T00:28:37;99392.03;;;20.14;62.66
42003;BME280;27693;50.506;30.832;2022-08-01T00:29:40;99388.01;;;20.20;62.41
42003;BME280;27693;50.506;30.832;2022-08-01T00:30:44;99385.37;;;20.20;62.25
42003;BME280;27693;50.506;30.832;2022-08-01T00:31:46;99391.77;;;20.17;62.44
42003;BME280;27693;50.506;30.832;2022-08-01T00:32:48;99392.03;;;20.14;62.64
42003;BME280;27693;50.506;30.832;2022-08-01T00:33:50;99384.81;;;20.16;62.42
42003;BME280;27693;50.506;30.832;2022-08-01T00:34:53;99384.81;;;20.16;62.57
42003;BME280;27693;50.506;30.832;2022-08-01T00:35:55;99385.38;;;20.10;62.95
42003;BME280;27693;50.506;30.832;2022-08-01T00:36:58;99388.14;;;19.99;62.95
42003;BME280;27693;50.506;30.832;2022-08-01T00:38:00;99382.30;;;19.95;62.98
42003;BME280;27693;50.506;30.832;2022-08-01T00:39:02;99387.58;;;19.95;63.54
42003;BME280;27693;50.506;30.832;2022-08-01T00:40:06;99383.56;;;19.91;63.94
42003;BME280;27693;50.506;30.832;2022-08-01T00:41:09;99385.64;;;19.87;63.63
42003;BME280;27693;50.506;30.832;2022-08-01T00:42:12;99380.89;;;19.81;63.57
42003;BME280;27693;50.506;30.832;2022-08-01T00:43:15;99387.14;;;19.80;64.29
42003;BME280;27693;50.506;30.832;2022-08-01T00:44:17;99381.45;;;19.75;63.85
42003;BME280;27693;50.506;30.832;2022-08-01T00:45:19;99383.23;;;19.64;64.20
42003;BME280;27693;50.506;30.832;2022-08-01T00:46:22;99379.77;;;19.64;64.21
42003;BME280;27693;50.506;30.832;2022-08-01T00:47:24;99382.55;;;19.62;64.54
42003;BME280;27693;50.506;30.832;2022-08-01T00:48:26;99378.66;;;19.67;64.52
42003;BME280;27693;50.506;30.832;2022-08-01T00:49:29;99379.36;;;19.69;64.22
42003;BME280;27693;50.506;30.832;2022-08-01T00:50:32;99376.72;;;19.69;64.76
42003;BME280;27693;50.506;30.832;2022-08-01T00:51:35;99375.76;;;19.70;64.72
42003;BME280;27693;50.506;30.832;2022-08-01T00:52:39;99376.72;;;19.69;64.30
42003;BME280;27693;50.506;30.832;2022-08-01T00:53:41;99376.02;;;19.67;64.20
42003;BME280;27693;50.506;30.832;2022-08-01T00:54:45;99376.72;;;19.69;64.06
42003;BME280;27693;50.506;30.832;2022-08-01T00:55:49;99371.45;;;19.69;64.28
42003;BME280;27693;50.506;30.832;2022-08-01T00:56:51;99377.84;;;19.66;64.11
42003;BME280;27693;50.506;30.832;2022-08-01T00:57:54;99377.28;;;19.62;64.25
42003;BME280;27693;50.506;30.832;2022-08-01T00:58:58;99376.28;;;19.63;64.19
42003;BME280;27693;50.506;30.832;2022-08-01T01:00:00;99370.89;;;19.65;64.39
42003;BME280;27693;50.506;30.832;2022-08-01T01:01:03;99372.26;;;19.59;64.51
42003;BME280;27693;50.506;30.832;2022-08-01T01:02:05;99367.95;;;19.58;64.43
42003;BME280;27693;50.506;30.832;2022-08-01T01:03:10;99367.80;;;19.60;64.51
42003;BME280;27693;50.506;30.832;2022-08-01T01:04:12;99376.95;;;19.46;64.93
42003;BME280;27693;50.506;30.832;2022-08-01T01:05:15;99368.88;;;19.38;64.98
42003;BME280;27693;50.506;30.832;2022-08-01T01:07:56;99377.76;;;19.37;65.34
42003;BME280;27693;50.506;30.832;2022-08-01T01:11:56;99379.67;;;19.15;66.38
42003;BME280;27693;50.506;30.832;2022-08-01T01:14:01;99369.60;;;18.99;66.39
42003;BME280;27693;50.506;30.832;2022-08-01T01:15:15;99370.45;;;18.99;66.47
42003;BME280;27693;50.506;30.832;2022-08-01T01:16:18;99368.67;;;19.10;66.26
42003;BME280;27693;50.506;30.832;2022-08-01T01:17:26;99377.72;;;19.17;66.15
42003;BME280;27693;50.506;30.832;2022-08-01T01:18:35;99375.78;;;19.19;65.97
42003;BME280;27693;50.506;30.832;2022-08-01T01:19:41;99378.84;;;19.24;66.20
42003;BME280;27693;50.506;30.832;2022-08-01T01:20:49;99378.59;;;19.27;65.65
42003;BME280;27693;50.506;30.832;2022-08-01T01:24:36;99384.44;;;19.31;65.57
42003;BME280;27693;50.506;30.832;2022-08-01T01:28:02;99379.72;;;19.35;65.32
42003;BME280;27693;50.506;30.832;2022-08-01T01:30:28;99382.47;;;19.33;65.21
42003;BME280;27693;50.506;30.832;2022-08-01T01:31:48;99381.91;;;19.29;65.19
42003;BME280;27693;50.506;30.832;2022-08-01T01:32:50;99384.55;;;19.29;65.70
42003;BME280;27693;50.506;30.832;2022-08-01T01:33:55;99388.45;;;19.35;65.54
42003;BME280;27693;50.506;30.832;2022-08-01T01:35:02;99392.91;;;19.35;65.16
42003;BME280;27693;50.506;30.832;2022-08-01T01:36:08;99385.82;;;19.35;65.83
42003;BME280;27693;50.506;30.832;2022-08-01T01:37:16;99386.67;;;19.36;65.00
42003;BME280;27693;50.506;30.832;2022-08-01T01:38:21;99394.13;;;19.30;65.27
42003;BME280;27693;50.506;30.832;2022-08-01T01:39:32;99385.42;;;19.40;65.60
42003;BME280;27693;50.506;30.832;2022-08-01T01:40:37;99386.78;;;19.34;65.60
42003;BME280;27693;50.506;30.832;2022-08-01T01:41:40;99390.53;;;19.31;65.41
42003;BME280;27693;50.506;30.832;2022-08-01T01:42:46;99390.53;;;19.31;65.07
42003;BME280;27693;50.506;30.832;2022-08-01T01:43:50;99390.27;;;19.35;65.27
42003;BME280;27693;50.506;30.832;2022-08-01T01:44:54;99385.56;;;19.38;65.04
42003;BME280;27693;50.506;30.832;2022-08-01T01:45:57;99384.45;;;19.41;65.21
42003;BME280;27693;50.506;30.832;2022-08-01T01:47:00;99386.13;;;19.42;64.87
42003;BME280;27693;50.506;30.832;2022-08-01T01:48:06;99391.41;;;19.42;64.63
42003;BME280;27693;50.506;30.832;2022-08-01T01:49:10;99394.45;;;19.47;65.06
42003;BME280;27693;50.506;30.832;2022-08-01T01:50:14;99389.59;;;19.42;64.60
42003;BME280;27693;50.506;30.832;2022-08-01T01:51:17;99388.77;;;19.42;64.85
42003;BME280;27693;50.506;30.832;2022-08-01T01:52:22;99386.38;;;19.39;64.73
42003;BME280;27693;50.506;30.832;2022-08-01T01:53:27;99381.11;;;19.39;64.94
42003;BME280;27693;50.506;30.832;2022-08-01T01:54:36;99385.27;;;19.41;64.52
42003;BME280;27693;50.506;30.832;2022-08-01T01:55:38;99382.49;;;19.43;64.71
42003;BME280;27693;50.506;30.832;2022-08-01T01:56:43;99387.77;;;19.43;64.79
42003;BME280;27693;50.506;30.832;2022-08-01T01:57:46;99388.48;;;19.45;64.90
42003;BME280;27693;50.506;30.832;2022-08-01T01:58:52;99384.88;;;19.46;64.78
42003;BME280;27693;50.506;30.832;2022-08-01T01:59:55;99391.67;;;19.48;64.85
42003;BME280;27693;50.506;30.832;2022-08-01T02:00:59;99389.73;;;19.41;64.49
42003;BME280;27693;50.506;30.832;2022-08-01T02:02:05;99382.78;;;19.40;64.50
42003;BME280;27693;50.506;30.832;2022-08-01T02:03:10;99387.09;;;19.41;64.80
42003;BME280;27693;50.506;30.832;2022-08-01T02:04:13;99388.77;;;19.42;64.39
42003;BME280;27693;50.506;30.832;2022-08-01T02:05:16;99391.52;;;19.40;64.23
42003;BME280;27693;50.506;30.832;2022-08-01T02:06:20;99392.48;;;19.39;64.16
42003;BME280;27693;50.506;30.832;2022-08-01T02:07:24;99389.84;;;19.39;64.56
42003;BME280;27693;50.506;30.832;2022-08-01T02:08:29;99389.98;;;19.38;64.73
42003;BME280;27693;50.506;30.832;2022-08-01T02:09:35;99395.66;;;19.33;64.53
42003;BME280;27693;50.506;30.832;2022-08-01T02:10:40;99394.70;;;19.34;64.85
42003;BME280;27693;50.506;30.832;2022-08-01T02:11:46;99394.27;;;19.29;65.07
42003;BME280;27693;50.506;30.832;2022-08-01T02:12:50;99382.20;;;19.26;64.93
42003;BME280;27693;50.506;30.832;2022-08-01T02:14:01;99395.63;;;19.23;65.25
42003;BME280;27693;50.506;30.832;2022-08-01T02:15:05;99387.12;;;19.10;65.35
42003;BME280;27693;50.506;30.832;2022-08-01T02:16:08;99389.77;;;19.10;65.30
42003;BME280;27693;50.506;30.832;2022-08-01T02:17:12;99385.73;;;19.06;65.70
42003;BME280;27693;50.506;30.832;2022-08-01T02:18:17;99387.66;;;19.04;65.51
42003;BME280;27693;50.506;30.832;2022-08-01T02:19:21;99388.52;;;19.04;65.18
42003;BME280;27693;50.506;30.832;2022-08-01T02:20:25;99386.27;;;18.99;65.30
42003;BME280;27693;50.506;30.832;2022-08-01T02:21:32;99386.66;;;18.95;65.74
42003;BME280;27693;50.506;30.832;2022-08-01T02:22:40;99384.45;;;19.00;66.13
42003;BME280;27693;50.506;30.832;2022-08-01T02:23:42;99387.41;;;19.07;65.96
42003;BME280;27693;50.506;30.832;2022-08-01T02:24:52;99382.13;;;19.07;65.02
42003;BME280;27693;50.506;30.832;2022-08-01T02:25:55;99381.17;;;19.08;65.17
42003;BME280;27693;50.506;30.832;2022-08-01T02:27:09;99382.95;;;19.07;65.16
42003;BME280;27693;50.506;30.832;2022-08-01T02:28:20;99378.79;;;19.05;64.84
42003;BME280;27693;50.506;30.832;2022-08-01T02:29:27;99375.33;;;19.04;64.82
42003;BME280;27693;50.506;30.832;2022-08-01T02:30:35;99380.18;;;19.09;64.70
42003;BME280;27693;50.506;30.832;2022-08-01T02:31:39;99376.58;;;19.10;64.54
42003;BME280;27693;50.506;30.832;2022-08-01T02:32:49;99376.58;;;19.10;64.63
42003;BME280;27693;50.506;30.832;2022-08-01T02:34:00;99381.59;;;19.13;64.59
42003;BME280;27693;50.506;30.832;2022-08-01T02:35:06;99374.05;;;18.98;64.81
42003;BME280;27693;50.506;30.832;2022-08-01T02:36:11;99372.17;;;18.89;65.27
42003;BME280;27693;50.506;30.832;2022-08-01T02:37:17;99374.91;;;18.78;65.90
42003;BME280;27693;50.506;30.832;2022-08-01T02:38:23;99371.13;;;18.71;65.86
42003;BME280;27693;50.506;30.832;2022-08-01T02:39:28;99375.30;;;18.73;65.92
42003;BME280;27693;50.506;30.832;2022-08-01T02:40:34;99369.31;;;18.71;65.65
42003;BME280;27693;50.506;30.832;2022-08-01T02:41:40;99371.95;;;18.71;65.85
42003;BME280;27693;50.506;30.832;2022-08-01T02:42:49;99372.52;;;18.75;66.17
42003;BME280;27693;50.506;30.832;2022-08-01T02:43:53;99373.77;;;18.71;65.75
42003;BME280;27693;50.506;30.832;2022-08-01T02:44:57;99371.95;;;18.71;65.97
42003;BME280;27693;50.506;30.832;2022-08-01T02:46:01;99374.01;;;18.67;66.03
42003;BME280;27693;50.506;30.832;2022-08-01T02:47:05;99369.68;;;18.57;66.58
42003;BME280;27693;50.506;30.832;2022-08-01T02:48:12;99372.17;;;18.58;66.46
42003;BME280;27693;50.506;30.832;2022-08-01T02:49:16;99373.33;;;18.65;66.34
42003;BME280;27693;50.506;30.832;2022-08-01T02:50:22;99379.98;;;18.70;66.39
42003;BME280;27693;50.506;30.832;2022-08-01T02:51:26;99374.19;;;18.76;66.02
42003;BME280;27693;50.506;30.832;2022-08-01T02:52:30;99373.66;;;18.82;65.81
42003;BME280;27693;50.506;30.832;2022-08-01T02:53:36;99368.92;;;18.76;65.88
42003;BME280;27693;50.506;30.832;2022-08-01T02:54:43;99369.88;;;18.75;65.92
42003;BME280;27693;50.506;30.832;2022-08-01T02:55:46;99375.86;;;18.77;65.71
42003;BME280;27693;50.506;30.832;2022-08-01T02:56:50;99374.91;;;18.78;65.68
42003;BME280;27693;50.506;30.832;2022-08-01T02:57:54;99379.50;;;18.86;65.61
42003;BME280;27693;50.506;30.832;2022-08-01T02:58:58;99377.01;;;18.84;65.40
42003;BME280;27693;50.506;30.832;2022-08-01T03:00:04;99377.54;;;18.78;66.08
42003;BME280;27693;50.506;30.832;2022-08-01T03:01:08;99378.64;;;18.75;65.66
42003;BME280;27693;50.506;30.832;2022-08-01T03:02:13;99380.27;;;18.66;65.33
42003;BME280;27693;50.506;30.832;2022-08-01T03:03:17;99374.47;;;18.73;65.34
42003;BME280;27693;50.506;30.832;2022-08-01T03:04:20;99380.89;;;18.80;65.80
42003;BME280;27693;50.506;30.832;2022-08-01T03:05:25;99380.36;;;18.86;64.77
42003;BME280;27693;50.506;30.832;2022-08-01T03:06:29;99381.64;;;18.92;65.39
42003;BME280;27693;50.506;30.832;2022-08-01T03:07:32;99382.03;;;18.87;65.04
42003;BME280;27693;50.506;30.832;2022-08-01T03:08:38;99377.33;;;18.91;65.10
42003;BME280;27693;50.506;30.832;2022-08-01T03:09:43;99370.70;;;18.96;64.87
42003;BME280;27693;50.506;30.832;2022-08-01T03:10:46;99375.72;;;18.99;64.61
42003;BME280;27693;50.506;30.832;2022-08-01T03:11:51;99384.98;;;18.94;64.52
42003;BME280;27693;50.506;30.832;2022-08-01T03:12:55;99376.48;;;18.90;64.44
42003;BME280;27693;50.506;30.832;2022-08-01T03:14:01;99376.27;;;18.93;64.29
42003;BME280;27693;50.506;30.832;2022-08-01T03:15:05;99374.05;;;18.98;64.44
42003;BME280;27693;50.506;30.832;2022-08-01T03:16:12;99378.79;;;19.05;64.19
42003;BME280;27693;50.506;30.832;2022-08-01T03:17:16;99375.91;;;19.08;63.80
42003;BME280;27693;50.506;30.832;2022-08-01T03:18:21;99377.43;;;19.10;63.14
42003;BME280;27693;50.506;30.832;2022-08-01T03:19:27;99385.48;;;19.19;63.80
42003;BME280;27693;50.506;30.832;2022-08-01T03:20:32;99387.72;;;19.23;63.35
42003;BME280;27693;50.506;30.832;2022-08-01T03:21:35;99383.02;;;19.27;63.27
42003;BME280;27693;50.506;30.832;2022-08-01T03:22:39;99381.80;;;19.31;63.31
42003;BME280;27693;50.506;30.832;2022-08-01T03:23:45;99390.27;;;19.35;62.58
42003;BME280;27693;50.506;30.832;2022-08-01T03:24:51;99388.31;;;19.37;62.50
42003;BME280;27693;50.506;30.832;2022-08-01T03:25:55;99388.60;;;19.34;62.51
42003;BME280;27693;50.506;30.832;2022-08-01T03:26:59;99387.34;;;19.38;62.67
42003;BME280;27693;50.506;30.832;2022-08-01T03:28:05;99394.58;;;19.36;62.24
42003;BME280;27693;50.506;30.832;2022-08-01T03:29:13;99390.27;;;19.35;62.34
42003;BME280;27693;50.506;30.832;2022-08-01T03:30:16;99390.13;;;19.36;62.34
42003;BME280;27693;50.506;30.832;2022-08-01T03:31:19;99388.17;;;19.28;62.75
42003;BME280;27693;50.506;30.832;2022-08-01T03:32:22;99386.92;;;19.33;62.42
42003;BME280;27693;50.506;30.832;2022-08-01T03:33:26;99389.16;;;19.37;63.37
42003;BME280;27693;50.506;30.832;2022-08-01T03:34:29;99395.00;;;19.41;62.08
42003;BME280;27693;50.506;30.832;2022-08-01T03:35:37;99384.45;;;19.41;62.78
42003;BME280;27693;50.506;30.832;2022-08-01T03:38:02;99392.78;;;19.46;62.00
42003;BME280;27693;50.506;30.832;2022-08-01T03:39:09;99390.56;;;19.51;62.75
42003;BME280;27693;50.506;30.832;2022-08-01T03:40:17;99387.67;;;19.54;61.98
42003;BME280;27693;50.506;30.832;2022-08-01T03:41:24;99386.41;;;19.58;61.70
42003;BME280;27693;50.506;30.832;2022-08-01T03:42:37;99384.33;;;19.52;62.00
42003;BME280;27693;50.506;30.832;2022-08-01T03:43:58;99381.69;;;19.52;62.01
42003;BME280;27693;50.506;30.832;2022-08-01T03:45:13;99389.75;;;19.51;61.83
42003;BME280;27693;50.506;30.832;2022-08-01T03:46:19;99390.41;;;19.43;62.56
42003;BME280;27693;50.506;30.832;2022-08-01T03:47:29;99389.02;;;19.39;62.55
42003;BME280;27693;50.506;30.832;2022-08-01T03:48:29;99395.97;;;19.40;62.57
42003;BME280;27693;50.506;30.832;2022-08-01T03:49:35;99386.38;;;19.39;62.35
42003;BME280;27693;50.506;30.832;2022-08-01T03:50:41;99390.30;;;19.44;61.90
42003;BME280;27693;50.506;30.832;2022-08-01T03:51:47;99393.35;;;19.50;62.49
42003;BME280;27693;50.506;30.832;2022-08-01T03:52:50;99382.54;;;19.53;61.42
42003;BME280;27693;50.506;30.832;2022-08-01T03:53:55;99381.43;;;19.55;61.23
42003;BME280;27693;50.506;30.832;2022-08-01T03:55:05;99386.97;;;19.52;61.38
42003;BME280;27693;50.506;30.832;2022-08-01T03:56:09;99395.73;;;19.53;61.41
42003;BME280;27693;50.506;30.832;2022-08-01T03:57:13;99385.86;;;19.55;61.56
42003;BME280;27693;50.506;30.832;2022-08-01T03:58:18;99383.36;;;19.53;62.00
42003;BME280;27693;50.506;30.832;2022-08-01T03:59:21;99375.30;;;19.55;61.12
42003;BME280;27693;50.506;30.832;2022-08-01T04:00:24;99379.75;;;19.54;62.01
42003;BME280;27693;50.506;30.832;2022-08-01T04:01:28;99382.39;;;19.54;61.16
42003;BME280;27693;50.506;30.832;2022-08-01T04:02:33;99383.92;;;19.57;61.22
42003;BME280;27693;50.506;30.832;2022-08-01T04:03:35;99381.13;;;19.48;61.07
42003;BME280;27693;50.506;30.832;2022-08-01T04:04:40;99379.05;;;19.52;61.17
42003;BME280;27693;50.506;30.832;2022-08-01T04:05:43;99372.81;;;19.53;60.78
42003;BME280;27693;50.506;30.832;2022-08-01T04:06:46;99377.53;;;19.59;60.44
42003;BME280;27693;50.506;30.832;2022-08-01T04:07:50;99377.53;;;19.59;60.44
42003;BME280;27693;50.506;30.832;2022-08-01T04:08:52;99377.13;;;19.64;60.60
42003;BME280;27693;50.506;30.832;2022-08-01T04:09:57;99379.20;;;19.60;61.20
42003;BME280;27693;50.506;30.832;2022-08-01T04:10:59;99379.91;;;19.62;60.49
42003;BME280;27693;50.506;30.832;2022-08-01T04:12:03;99378.66;;;19.67;60.33
42003;BME280;27693;50.506;30.832;2022-08-01T04:13:07;99387.28;;;19.69;60.90
42003;BME280;27693;50.506;30.832;2022-08-01T04:14:09;99375.87;;;19.68;60.56
42003;BME280;27693;50.506;30.832;2022-08-01T04:15:11;99381.45;;;19.75;60.42
42003;BME280;27693;50.506;30.832;2022-08-01T04:16:16;99377.84;;;19.76;59.83
42003;BME280;27693;50.506;30.832;2022-08-01T04:17:18;99378.95;;;19.73;59.55
42003;BME280;27693;50.506;30.832;2022-08-01T04:18:21;99382.56;;;19.72;60.37
42003;BME280;27693;50.506;30.832;2022-08-01T04:19:23;99380.48;;;19.76;59.85
42003;BME280;27693;50.506;30.832;2022-08-01T04:20:26;99379.52;;;19.77;59.90
42003;BME280;27693;50.506;30.832;2022-08-01T04:21:31;99382.56;;;19.82;59.70
42003;BME280;27693;50.506;30.832;2022-08-01T04:22:34;99380.05;;;19.80;59.55
42003;BME280;27693;50.506;30.832;2022-08-01T04:23:41;99375.35;;;19.84;59.45
42003;BME280;27693;50.506;30.832;2022-08-01T04:24:46;99376.77;;;19.88;58.74
42003;BME280;27693;50.506;30.832;2022-08-01T04:25:50;99375.09;;;19.87;58.73
42003;BME280;27693;50.506;30.832;2022-08-01T04:26:54;99376.77;;;19.88;59.60
42003;BME280;27693;50.506;30.832;2022-08-01T04:27:57;99368.28;;;19.94;59.86
42003;BME280;27693;50.506;30.832;2022-08-01T04:29:02;99374.27;;;19.97;59.61
42003;BME280;27693;50.506;30.832;2022-08-01T04:30:08;99365.08;;;20.01;59.01
42003;BME280;27693;50.506;30.832;2022-08-01T04:31:15;99368.42;;;20.03;58.11
42003;BME280;27693;50.506;30.832;2022-08-01T04:32:20;99362.84;;;20.06;59.17
42003;BME280;27693;50.506;30.832;2022-08-01T04:33:26;99364.81;;;20.04;58.31
42003;BME280;27693;50.506;30.832;2022-08-01T04:34:31;99372.17;;;20.10;58.49
42003;BME280;27693;50.506;30.832;2022-08-01T04:35:36;99372.84;;;20.12;58.55
42003;BME280;27693;50.506;30.832;2022-08-01T04:36:42;99368.98;;;20.06;58.27
42003;BME280;27693;50.506;30.832;2022-08-01T04:37:47;99367.45;;;20.04;58.54
42003;BME280;27693;50.506;30.832;2022-08-01T04:38:54;99372.03;;;20.02;59.38
42003;BME280;27693;50.506;30.832;2022-08-01T04:39:58;99365.34;;;19.98;58.45
42003;BME280;27693;50.506;30.832;2022-08-01T04:41:02;99359.80;;;20.01;59.35
42003;BME280;27693;50.506;30.832;2022-08-01T04:42:07;99364.66;;;20.05;59.49
42003;BME280;27693;50.506;30.832;2022-08-01T04:43:10;99371.47;;;20.08;58.11
42003;BME280;27693;50.506;30.832;2022-08-01T04:44:13;99360.64;;;20.11;58.17
42003;BME280;27693;50.506;30.832;2022-08-01T04:45:16;99369.23;;;20.13;58.32
42003;BME280;27693;50.506;30.832;2022-08-01T04:46:21;99370.91;;;20.14;58.26
42003;BME280;27693;50.506;30.832;2022-08-01T04:47:25;99367.30;;;20.15;58.29
42003;BME280;27693;50.506;30.832;2022-08-01T04:48:28;99364.80;;;20.14;58.50
42003;BME280;27693;50.506;30.832;2022-08-01T04:49:31;99365.62;;;20.14;58.67
42003;BME280;27693;50.506;30.832;2022-08-01T04:50:36;99362.84;;;20.06;58.86
42003;BME280;27693;50.506;30.832;2022-08-01T04:51:53;99364.52;;;20.07;58.50
42003;BME280;27693;50.506;30.832;2022-08-01T04:52:56;99367.16;;;20.07;58.43
42003;BME280;27693;50.506;30.832;2022-08-01T04:53:59;99370.09;;;20.04;58.95
42003;BME280;27693;50.506;30.832;2022-08-01T04:55:03;99364.52;;;20.07;58.41
42003;BME280;27693;50.506;30.832;2022-08-01T04:56:06;99367.86;;;20.09;58.62
42003;BME280;27693;50.506;30.832;2022-08-01T04:57:09;99369.65;;;20.08;58.40
42003;BME280;27693;50.506;30.832;2022-08-01T04:58:12;99360.91;;;20.08;58.25
42003;BME280;27693;50.506;30.832;2022-08-01T04:59:17;99375.78;;;20.09;58.50
42003;BME280;27693;50.506;30.832;2022-08-01T05:00:22;99368.83;;;20.08;58.38
42003;BME280;27693;50.506;30.832;2022-08-01T05:01:24;99367.56;;;20.12;58.73
42003;BME280;27693;50.506;30.832;2022-08-01T05:02:27;99371.45;;;20.18;58.99
42003;BME280;27693;50.506;30.832;2022-08-01T05:03:29;99373.28;;;20.17;58.48
42003;BME280;27693;50.506;30.832;2022-08-01T05:04:34;99370.34;;;20.20;58.59
42003;BME280;27693;50.506;30.832;2022-08-01T05:05:36;99371.04;;;20.22;58.32
42003;BME280;27693;50.506;30.832;2022-08-01T05:06:39;99374.39;;;20.24;58.27
42003;BME280;27693;50.506;30.832;2022-08-01T05:07:41;99364.22;;;20.30;57.94
42003;BME280;27693;50.506;30.832;2022-08-01T05:08:45;99367.41;;;20.33;58.21
42003;BME280;27693;50.506;30.832;2022-08-01T05:09:47;99369.48;;;20.39;57.94
42003;BME280;27693;50.506;30.832;2022-08-01T05:10:50;99370.30;;;20.40;57.79
42003;BME280;27693;50.506;30.832;2022-08-01T05:11:52;99368.36;;;20.42;58.02
42003;BME280;27693;50.506;30.832;2022-08-01T05:12:55;99366.99;;;20.38;57.81
42003;BME280;27693;50.506;30.832;2022-08-01T05:13:57;99367.56;;;20.32;57.95
42003;BME280;27693;50.506;30.832;2022-08-01T05:14:59;99368.11;;;20.35;58.25
42003;BME280;27693;50.506;30.832;2022-08-01T05:16:02;99376.44;;;20.40;58.06
42003;BME280;27693;50.506;30.832;2022-08-01T05:17:05;99368.09;;;20.45;57.90
42003;BME280;27693;50.506;30.832;2022-08-01T05:18:08;99363.91;;;20.52;58.07
42003;BME280;27693;50.506;30.832;2022-08-01T05:19:11;99364.56;;;20.54;58.09
42003;BME280;27693;50.506;30.832;2022-08-01T05:20:14;99372.07;;;20.59;58.01
42003;BME280;27693;50.506;30.832;2022-08-01T05:21:17;99362.32;;;20.59;57.91
42003;BME280;27693;50.506;30.832;2022-08-01T05:22:20;99361.34;;;20.61;57.56
42003;BME280;27693;50.506;30.832;2022-08-01T05:23:22;99362.44;;;20.68;58.08
42003;BME280;27693;50.506;30.832;2022-08-01T05:24:27;99361.89;;;20.74;57.80
42003;BME280;27693;50.506;30.832;2022-08-01T05:25:29;99367.72;;;20.78;57.58
42003;BME280;27693;50.506;30.832;2022-08-01T05:26:34;99368.69;;;20.86;57.76
42003;BME280;27693;50.506;30.832;2022-08-01T05:27:39;99369.08;;;20.92;57.00
42003;BME280;27693;50.506;30.832;2022-08-01T05:28:42;99361.53;;;20.97;56.91
42003;BME280;27693;50.506;30.832;2022-08-01T05:29:44;99362.61;;;21.04;56.69
42003;BME280;27693;50.506;30.832;2022-08-01T05:30:47;99365.64;;;21.09;56.66
42003;BME280;27693;50.506;30.832;2022-08-01T05:31:50;99360.66;;;21.06;56.72
42003;BME280;27693;50.506;30.832;2022-08-01T05:32:53;99360.07;;;21.12;56.93
42003;BME280;27693;50.506;30.832;2022-08-01T05:33:55;99361.15;;;21.19;57.15
42003;BME280;27693;50.506;30.832;2022-08-01T05:34:57;99363.04;;;21.27;56.78
42003;BME280;27693;50.506;30.832;2022-08-01T05:35:59;99364.27;;;21.33;56.86
42003;BME280;27693;50.506;30.832;2022-08-01T05:37:02;99361.72;;;21.41;56.44
42003;BME280;27693;50.506;30.832;2022-08-01T05:38:04;99356.80;;;21.46;56.86
42003;BME280;27693;50.506;30.832;2022-08-01T05:39:07;99357.88;;;21.53;56.34
42003;BME280;27693;50.506;30.832;2022-08-01T05:40:11;99357.30;;;21.60;55.90
42003;BME280;27693;50.506;30.832;2022-08-01T05:41:13;99356.00;;;21.64;55.67
42003;BME280;27693;50.506;30.832;2022-08-01T05:42:16;99357.83;;;21.63;54.54
42003;BME280;27693;50.506;30.832;2022-08-01T05:43:19;99356.41;;;21.69;55.47
42003;BME280;27693;50.506;30.832;2022-08-01T05:44:21;99361.70;;;21.69;54.57
42003;BME280;27693;50.506;30.832;2022-08-01T05:45:23;99368.95;;;21.67;54.99
42003;BME280;27693;50.506;30.832;2022-08-01T05:46:27;99366.14;;;21.68;54.71
42003;BME280;27693;50.506;30.832;2022-08-01T05:47:29;99362.23;;;21.73;55.07
42003;BME280;27693;50.506;30.832;2022-08-01T05:48:31;99363.05;;;21.73;54.29
42003;BME280;27693;50.506;30.832;2022-08-01T05:49:34;99371.97;;;21.72;54.44